Time;durP1;ratioP1;P1;durP2;ratioP2;P2;SDS_P1;SDS_P2;PMS_P1;PMS_P2;Temp;Humidity;BMP_temperature;BMP_pressure;BME280_temperature;BME280_humidity;BME280_pressure;Samples;Min_cycle;Max_cycle;Signal;HPM_P1;HPM_P2
2022/11/05 00:09:33;;;;;;;48.30;27.93;;;;;;;-143.84;100.00;45195.69;5092820;28;21029;-71
2022/11/05 00:17:33;;;;;;;50.63;27.77;;;;;;;-143.84;100.00;45159.50;5073159;28;20428;-71
2022/11/05 00:20:00;;;;;;;49.33;29.13;;;;;;;-143.84;100.00;45159.50;5073136;28;20522;-71
2022/11/05 00:25:15;;;;;;;66.27;31.73;;;;;;;-143.84;100.00;45193.78;5073147;28;20416;-71
2022/11/05 00:27:51;;;;;;;53.00;31.70;;;;;;;-143.84;100.00;45170.94;5073044;28;20532;-71
2022/11/05 00:30:20;;;;;;;48.73;31.03;;;;;;;-143.84;100.00;45157.59;5072673;28;20641;-71
2022/11/05 00:32:48;;;;;;;46.83;26.97;;;;;;;-143.84;100.00;45180.47;5068294;28;20611;-71
2022/11/05 00:35:16;;;;;;;56.37;31.00;;;;;;;-143.84;100.00;45170.94;5052506;28;20493;-71
2022/11/05 00:37:45;;;;;;;53.60;31.30;;;;;;;-143.84;100.00;45178.56;5052611;28;20442;-71
2022/11/05 00:40:15;;;;;;;69.43;31.27;;;;;;;-143.84;100.00;45153.81;5050573;28;20443;-72
2022/11/05 00:45:28;;;;;;;54.03;31.43;;;;;;;-143.84;100.00;45144.28;5050600;28;20438;-72
2022/11/05 00:50:39;;;;;;;66.03;29.37;;;;;;;-143.84;100.00;45169.03;5050626;28;20431;-72
2022/11/05 00:53:07;;;;;;;61.23;31.60;;;;;;;-143.84;100.00;45172.84;5050745;28;20450;-72
2022/11/05 00:55:38;;;;;;;53.07;32.50;;;;;;;-143.84;100.00;45155.69;5050458;28;20539;-68
2022/11/05 00:58:07;;;;;;;69.40;32.30;;;;;;;-143.84;100.00;45174.75;5050186;28;20508;-68
2022/11/05 01:00:37;;;;;;;50.13;31.70;;;;;;;-143.84;100.00;45201.41;5049633;28;20631;-68
2022/11/05 01:03:06;;;;;;;60.97;30.00;;;;;;;-143.84;100.00;45142.38;5050058;28;20442;-68
2022/11/05 01:05:34;;;;;;;57.73;30.93;;;;;;;-143.84;100.00;45163.31;5050053;28;20438;-68
2022/11/05 01:08:01;;;;;;;50.63;32.77;;;;;;;-143.84;100.00;45163.31;5068882;28;20452;-68
2022/11/05 01:10:28;;;;;;;49.30;31.30;;;;;;;-143.84;100.00;45159.50;5069816;28;20522;-68
2022/11/05 01:12:57;;;;;;;59.33;30.80;;;;;;;-143.84;100.00;45153.81;5069768;28;20818;-68
2022/11/05 01:15:25;;;;;;;56.53;30.57;;;;;;;-143.84;100.00;45172.84;5069690;28;20463;-68
2022/11/05 01:17:52;;;;;;;46.13;30.00;;;;;;;-143.84;100.00;45180.47;5069652;28;20450;-68
2022/11/05 01:20:19;;;;;;;53.43;31.27;;;;;;;-143.84;100.00;45169.03;5069881;28;20459;-68
2022/11/05 01:22:47;;;;;;;60.47;30.90;;;;;;;-143.84;100.00;45159.50;5068627;28;20473;-68
2022/11/05 01:25:14;;;;;;;59.07;29.97;;;;;;;-143.84;100.00;45153.81;5069367;28;20443;-68
2022/11/05 01:27:41;;;;;;;66.93;29.17;;;;;;;-143.84;100.00;45174.75;5069632;28;20439;-68
2022/11/05 01:30:11;;;;;;;47.83;28.33;;;;;;;-143.84;100.00;45151.91;5069519;28;20447;-68
2022/11/05 01:32:39;;;;;;;64.40;30.50;;;;;;;-143.84;100.00;45172.84;5072212;28;20996;-68
2022/11/05 01:35:08;;;;;;;56.33;29.40;;;;;;;-143.84;100.00;45151.91;5070215;28;20446;-68
2022/11/05 01:37:36;;;;;;;49.43;30.60;;;;;;;-143.84;100.00;45170.94;5086632;28;20990;-68
2022/11/05 01:40:04;;;;;;;60.57;32.53;;;;;;;-143.84;100.00;45189.97;5089579;28;20508;-68
2022/11/05 01:42:33;;;;;;;47.80;30.17;;;;;;;-143.84;100.00;45180.47;5089654;28;20507;-68
2022/11/05 01:45:03;;;;;;;53.60;30.80;;;;;;;-143.84;100.00;45174.75;5089749;28;20439;-68
2022/11/05 01:47:39;;;;;;;54.67;30.30;;;;;;;-143.84;100.00;45256.63;5049039;28;21215;-68
2022/11/05 01:50:20;;;;;;;60.60;31.70;;;;;;;-143.84;100.00;45197.59;5048871;28;20982;-68
2022/11/05 01:52:50;;;;;;;60.07;30.07;;;;;;;-143.84;100.00;45165.22;5049090;28;20458;-68
2022/11/05 01:55:21;;;;;;;54.70;31.63;;;;;;;-143.84;100.00;45189.97;5048857;28;20439;-68
2022/11/05 01:57:49;;;;;;;63.80;31.80;;;;;;;-143.84;100.00;45182.38;5049089;28;20448;-68
2022/11/05 02:00:16;;;;;;;56.17;32.37;;;;;;;-143.84;100.00;45138.56;5048985;28;20449;-68
2022/11/05 02:02:45;;;;;;;70.77;32.17;;;;;;;-143.84;100.00;45163.31;5049194;28;20522;-68
2022/11/05 02:05:14;;;;;;;52.77;32.97;;;;;;;-143.84;100.00;45188.06;5049345;28;21207;-68
2022/11/05 02:07:43;;;;;;;59.20;36.13;;;;;;;-143.84;100.00;45167.13;5048993;28;20512;-68
2022/11/05 02:10:13;;;;;;;63.80;32.83;;;;;;;-143.84;100.00;45172.84;5048132;28;20500;-68
2022/11/05 02:12:43;;;;;;;62.67;29.17;;;;;;;-143.84;100.00;45157.59;5048171;28;20521;-68
2022/11/05 02:15:12;;;;;;;60.80;31.77;;;;;;;-143.84;100.00;45151.91;5048256;28;20439;-68
2022/11/05 02:17:51;;;;;;;51.93;30.90;;;;;;;-143.84;100.00;45170.94;5048652;28;20488;-72
2022/11/05 02:20:41;;;;;;;55.63;32.97;;;;;;;-143.84;100.00;45174.75;5048255;28;20451;-72
2022/11/05 02:23:37;;;;;;;56.77;32.20;;;;;;;-143.84;100.00;45184.25;5048365;28;20484;-72
2022/11/05 02:26:46;;;;;;;64.20;34.00;;;;;;;-143.84;100.00;45146.19;5048599;28;20462;-72
2022/11/05 02:29:55;;;;;;;71.37;34.93;;;;;;;-143.84;100.00;45151.91;5021220;28;20457;-72
2022/11/05 02:32:37;;;;;;;60.33;33.33;;;;;;;-143.84;100.00;45163.31;5047860;28;20445;-72
2022/11/05 02:35:16;;;;;;;52.37;33.60;;;;;;;-143.84;100.00;45163.31;5048600;28;20495;-72
2022/11/05 02:37:49;;;;;;;56.90;36.00;;;;;;;-143.84;100.00;45155.69;5048577;28;20554;-72
2022/11/05 02:40:24;;;;;;;75.73;34.40;;;;;;;-143.84;100.00;45170.94;5048752;28;20448;-72
2022/11/05 02:42:58;;;;;;;69.17;32.77;;;;;;;-143.84;100.00;45170.94;5068596;28;20814;-72
2022/11/05 02:45:41;;;;;;;66.70;35.53;;;;;;;-143.84;100.00;45148.09;5068320;28;20535;-72
2022/11/05 02:48:17;;;;;;;60.03;35.10;;;;;;;-143.84;100.00;45161.41;5068567;28;20523;-72
2022/11/05 02:50:54;;;;;;;75.37;33.50;;;;;;;-143.84;100.00;45169.03;5068788;28;21013;-72
2022/11/05 02:53:33;;;;;;;59.13;36.70;;;;;;;-143.84;100.00;45159.50;5068192;28;20454;-73
2022/11/05 02:56:04;;;;;;;61.13;36.50;;;;;;;-143.84;100.00;45151.91;5068580;28;20532;-72
2022/11/05 02:58:34;;;;;;;55.90;35.20;;;;;;;-143.84;100.00;45186.16;5068215;28;20449;-72
2022/11/05 03:01:05;;;;;;;69.50;36.23;;;;;;;-143.84;100.00;45153.81;5068230;28;20437;-72
2022/11/05 03:03:37;;;;;;;71.80;37.90;;;;;;;-143.84;100.00;45161.41;5068289;28;20450;-72
2022/11/05 03:06:20;;;;;;;72.40;38.33;;;;;;;-143.84;100.00;45174.75;5067906;28;20485;-72
2022/11/05 03:09:06;;;;;;;71.57;39.67;;;;;;;-143.84;100.00;45169.03;5067702;28;20443;-72
2022/11/05 03:11:39;;;;;;;63.23;41.33;;;;;;;-143.84;100.00;45170.94;5067849;28;20954;-72
2022/11/05 03:14:17;;;;;;;74.57;41.20;;;;;;;-143.84;100.00;45191.88;5067774;28;20851;-72
2022/11/05 03:16:53;;;;;;;79.50;39.00;;;;;;;-143.84;100.00;45184.25;5067985;28;21073;-72
2022/11/05 03:19:35;;;;;;;84.13;42.90;;;;;;;-143.84;100.00;45184.25;5068028;28;20528;-73
2022/11/05 03:22:09;;;;;;;104.27;43.20;;;;;;;-143.84;100.00;45178.56;5067974;28;20455;-73
2022/11/05 03:24:42;;;;;;;95.33;44.07;;;;;;;-143.84;100.00;45163.31;5068224;28;20454;-70
2022/11/05 03:27:12;;;;;;;85.17;41.70;;;;;;;-143.84;100.00;45176.66;5067961;28;20458;-70
2022/11/05 03:29:47;;;;;;;81.97;44.07;;;;;;;-143.84;100.00;45153.81;5068270;28;20505;-68
2022/11/05 03:32:17;;;;;;;88.03;45.20;;;;;;;-143.84;100.00;45151.91;5068075;28;20502;-68
2022/11/05 03:34:49;;;;;;;91.57;45.37;;;;;;;-143.84;100.00;45169.03;5067859;28;20993;-68
2022/11/05 03:37:19;;;;;;;71.77;42.40;;;;;;;-143.84;100.00;45150.00;5067464;28;21003;-68
2022/11/05 03:39:51;;;;;;;71.63;40.17;;;;;;;-143.84;100.00;45155.69;5067859;28;20972;-68
2022/11/05 03:42:25;;;;;;;71.70;43.37;;;;;;;-143.84;100.00;45172.84;5067810;28;20458;-68
2022/11/05 03:44:56;;;;;;;81.23;42.90;;;;;;;-143.84;100.00;45155.69;5068488;28;20435;-68
2022/11/05 03:47:28;;;;;;;77.60;41.90;;;;;;;-143.84;100.00;45189.97;5071877;28;20522;-68
2022/11/05 03:50:05;;;;;;;73.50;42.10;;;;;;;-143.84;100.00;45170.94;5071380;28;20948;-68
2022/11/05 03:52:40;;;;;;;67.57;43.17;;;;;;;-143.84;100.00;45142.38;5071459;28;20454;-68
2022/11/05 03:55:07;;;;;;;85.13;43.97;;;;;;;-143.84;100.00;45172.84;5071546;28;20508;-68
2022/11/05 03:57:38;;;;;;;73.23;38.63;;;;;;;-143.84;100.00;45178.56;5071201;28;20491;-68
2022/11/05 04:00:08;;;;;;;80.27;43.40;;;;;;;-143.84;100.00;45146.19;5071678;28;20945;-72
2022/11/05 04:02:37;;;;;;;80.93;45.13;;;;;;;-143.84;100.00;45174.75;5071406;28;20526;-72
2022/11/05 04:05:07;;;;;;;79.60;40.40;;;;;;;-143.84;100.00;45167.13;5071250;28;20444;-72
2022/11/05 04:18:35;;;;;;;70.97;41.70;;;;;;;-143.84;100.00;45155.69;5045011;28;20451;-72
2022/11/05 04:26:33;;;;;;;64.50;38.70;;;;;;;-143.84;99.37;45184.25;5072295;28;20452;-70
2022/11/05 04:31:44;;;;;;;64.40;39.03;;;;;;;-143.84;99.29;45191.88;5072180;28;20438;-70
2022/11/05 04:34:12;;;;;;;76.00;40.73;;;;;;;-143.84;99.15;45180.47;5087646;28;20890;-70
2022/11/05 04:36:40;;;;;;;56.80;36.30;;;;;;;-143.84;98.77;45170.94;5092500;28;20983;-70
2022/11/05 04:39:07;;;;;;;68.43;38.20;;;;;;;-143.84;98.70;45153.81;5092932;28;20457;-70
2022/11/05 04:41:34;;;;;;;66.67;39.70;;;;;;;-143.84;98.69;45189.97;5091545;28;21128;-68
2022/11/05 04:44:01;;;;;;;71.90;39.07;;;;;;;-143.84;98.84;45146.19;5090697;28;20441;-68
2022/11/05 04:46:29;;;;;;;82.50;42.50;;;;;;;-143.84;98.88;45180.47;5090500;28;20443;-68
2022/11/05 04:48:56;;;;;;;64.93;39.67;;;;;;;-143.84;98.44;45191.88;5090633;28;20443;-67
2022/11/05 04:51:23;;;;;;;59.07;36.67;;;;;;;-143.84;97.79;45165.22;5090594;28;20450;-68
2022/11/05 04:53:51;;;;;;;62.37;38.03;;;;;;;-143.84;97.76;45193.78;5090555;28;20439;-68
2022/11/05 04:56:21;;;;;;;62.50;40.50;;;;;;;-143.84;97.49;45165.22;5090547;28;20474;-68
2022/11/05 04:58:48;;;;;;;78.27;44.53;;;;;;;-143.84;97.41;45157.59;5090592;28;20440;-68
2022/11/05 05:01:17;;;;;;;70.83;42.27;;;;;;;-143.84;97.23;45180.47;5081613;28;20441;-68
2022/11/05 05:03:47;;;;;;;68.43;38.20;;;;;;;-143.84;96.88;45184.25;5087081;28;20439;-67
2022/11/05 05:06:14;;;;;;;62.43;38.17;;;;;;;-143.84;95.30;45170.94;5089348;28;20523;-67
2022/11/05 05:08:41;;;;;;;55.90;34.30;;;;;;;-143.84;94.47;45172.84;5088867;28;20439;-69
2022/11/05 05:11:12;;;;;;;63.27;36.40;;;;;;;-143.84;93.50;45188.06;5070022;28;20446;-68
2022/11/05 05:13:40;;;;;;;54.63;35.60;;;;;;;-143.84;93.21;45161.41;5070055;28;20436;-68
2022/11/05 05:16:09;;;;;;;58.03;35.67;;;;;;;-143.84;92.51;45167.13;5069743;28;20451;-68
2022/11/05 05:18:36;;;;;;;61.87;38.77;;;;;;;-143.84;92.52;45159.50;5069714;28;20473;-69
2022/11/05 05:23:48;;;;;;;63.77;37.67;;;;;;;-143.84;91.44;45170.94;5068946;28;20434;-69
2022/11/05 05:26:17;;;;;;;49.23;36.23;;;;;;;-143.84;91.18;45151.91;5069579;28;20439;-69
2022/11/05 05:28:44;;;;;;;54.50;36.47;;;;;;;-143.84;91.19;45170.94;5069907;28;20440;-69
2022/11/05 05:31:11;;;;;;;64.77;38.67;;;;;;;-143.84;91.06;45174.75;5069745;28;20445;-68
2022/11/05 05:33:38;;;;;;;52.50;38.10;;;;;;;-143.84;90.52;45159.50;5058703;28;20470;-68
2022/11/05 05:36:06;;;;;;;56.93;37.87;;;;;;;-143.84;89.86;45191.88;5049932;28;20437;-69
2022/11/05 05:38:33;;;;;;;65.20;35.13;;;;;;;-143.84;90.02;45153.81;5049236;28;20489;-69
2022/11/05 05:41:00;;;;;;;54.47;36.77;;;;;;;-143.84;89.72;45167.13;5049837;28;20842;-71
2022/11/05 05:43:31;;;;;;;54.87;34.63;;;;;;;-143.84;89.60;45178.56;5049405;28;20962;-70
2022/11/05 05:46:02;;;;;;;61.67;35.87;;;;;;;-143.84;89.85;45159.50;5049233;28;20498;-71
2022/11/05 05:48:29;;;;;;;61.33;36.40;;;;;;;-143.84;89.69;45150.00;5066540;28;20459;-71
2022/11/05 05:51:00;;;;;;;51.93;34.83;;;;;;;-143.84;89.31;45151.91;5069305;28;20436;-71
2022/11/05 05:53:28;;;;;;;58.77;36.87;;;;;;;-143.84;89.60;45165.22;5068500;28;20539;-71
2022/11/05 05:55:55;;;;;;;61.40;37.07;;;;;;;-143.84;89.76;45167.13;5069481;28;20437;-71
2022/11/05 05:58:23;;;;;;;56.33;34.63;;;;;;;-143.84;89.55;45169.03;5068883;28;20486;-71
2022/11/05 06:00:51;;;;;;;54.57;35.80;;;;;;;-143.84;89.28;45167.13;5068707;28;20452;-70
2022/11/05 06:03:19;;;;;;;59.30;37.13;;;;;;;-143.84;89.05;45165.22;5069111;28;20437;-70
2022/11/05 06:05:46;;;;;;;75.20;35.97;;;;;;;-143.84;88.67;45146.19;5068747;28;20802;-71
2022/11/05 06:08:13;;;;;;;53.00;37.47;;;;;;;-143.84;87.97;45157.59;5067510;28;20440;-70
2022/11/05 06:10:40;;;;;;;60.53;36.93;;;;;;;-143.84;87.85;45155.69;5068671;28;20453;-70
2022/11/05 06:13:07;;;;;;;55.80;35.03;;;;;;;-143.84;87.66;45176.66;5069100;28;20441;-70
2022/11/05 06:15:34;;;;;;;57.43;34.37;;;;;;;-143.84;88.02;45153.81;5068737;28;21213;-70
2022/11/05 06:18:03;;;;;;;70.17;36.67;;;;;;;-143.84;87.59;45188.06;5068577;28;20545;-70
2022/11/05 06:20:30;;;;;;;63.60;35.40;;;;;;;-143.84;87.44;45151.91;5068682;28;20441;-70
2022/11/05 06:22:58;;;;;;;55.97;36.10;;;;;;;-143.84;87.23;45169.03;5068202;28;20957;-70
2022/11/05 06:25:25;;;;;;;61.50;35.00;;;;;;;-143.84;87.02;45165.22;5068539;28;20452;-71
2022/11/05 06:27:53;;;;;;;59.50;34.60;;;;;;;-143.84;87.01;45138.56;5068042;28;20449;-71
2022/11/05 06:30:22;;;;;;;65.77;34.20;;;;;;;-143.84;86.92;45157.59;5068263;28;20429;-71
2022/11/05 06:32:49;;;;;;;71.70;37.57;;;;;;;-143.84;87.51;45153.81;5068401;28;20492;-71
2022/11/05 06:35:18;;;;;;;62.00;39.83;;;;;;;-143.84;87.74;45163.31;5068777;28;20437;-71
2022/11/05 06:37:45;;;;;;;62.63;38.07;;;;;;;-143.84;87.87;45151.91;5067898;28;20481;-71
2022/11/05 06:40:13;;;;;;;62.67;36.00;;;;;;;-143.84;87.47;45148.09;5055411;28;20456;-71
2022/11/05 06:42:40;;;;;;;65.13;34.20;;;;;;;-143.84;87.39;45144.28;5048466;28;20442;-71
2022/11/05 06:45:08;;;;;;;57.00;38.60;;;;;;;-143.84;87.66;45161.41;5047929;28;20503;-70
2022/11/05 06:47:35;;;;;;;55.70;32.40;;;;;;;-143.84;87.06;45167.13;5047920;28;20434;-71
2022/11/05 06:50:03;;;;;;;49.67;31.77;;;;;;;-143.84;86.76;45170.94;5047881;28;20437;-71
2022/11/05 06:52:31;;;;;;;57.63;31.57;;;;;;;-143.84;86.62;45161.41;5047340;28;20434;-71
2022/11/05 06:54:58;;;;;;;55.73;32.53;;;;;;;-143.84;86.10;45157.59;5048155;28;20449;-70
2022/11/05 06:57:25;;;;;;;50.30;32.40;;;;;;;-143.84;85.40;45148.09;5048226;28;20505;-70
2022/11/05 06:59:53;;;;;;;61.33;31.90;;;;;;;-143.84;85.41;45170.94;5048486;28;20539;-71
2022/11/05 07:02:20;;;;;;;50.53;33.03;;;;;;;-143.84;84.30;45153.81;5048189;28;20429;-71
2022/11/05 07:04:47;;;;;;;60.83;33.63;;;;;;;-143.84;82.91;45140.47;5067549;28;20499;-71
2022/11/05 07:07:14;;;;;;;51.97;32.50;;;;;;;-143.84;81.92;45170.94;5068072;28;20498;-71
2022/11/05 07:09:43;;;;;;;73.33;30.60;;;;;;;-143.84;81.93;45129.03;5068061;28;20456;-70
2022/11/05 07:12:10;;;;;;;49.53;31.80;;;;;;;-143.84;80.55;45146.19;5067717;28;21077;-71
2022/11/05 07:14:37;;;;;;;59.73;32.30;;;;;;;-143.84;79.49;45136.66;5067824;28;20449;-71
2022/11/05 07:17:05;;;;;;;60.40;30.70;;;;;;;-143.84;78.34;45148.09;5067838;28;20429;-70
2022/11/05 07:19:32;;;;;;;56.93;30.40;;;;;;;-143.84;76.58;45150.00;5058699;28;20469;-70
2022/11/05 07:21:59;;;;;;;98.43;33.00;;;;;;;-143.84;76.09;45134.75;5054435;28;20438;-70
2022/11/05 07:24:26;;;;;;;61.73;29.57;;;;;;;-143.84;75.93;45170.94;5052131;28;20877;-70
2022/11/05 07:26:54;;;;;;;55.20;30.87;;;;;;;-143.84;73.47;45159.50;5052104;28;20441;-70
2022/11/05 07:29:22;;;;;;;53.23;29.47;;;;;;;-143.84;71.45;45155.69;5051732;28;20434;-70
2022/11/05 07:31:49;;;;;;;61.93;30.50;;;;;;;-143.84;71.57;45127.13;5068855;28;20490;-70
2022/11/05 07:34:16;;;;;;;65.33;29.27;;;;;;;-143.84;70.31;45151.91;5084406;28;20476;-70
2022/11/05 07:36:43;;;;;;;48.87;29.37;;;;;;;-143.84;70.12;45129.03;5091324;28;20444;-70
2022/11/05 07:39:10;;;;;;;53.57;30.60;;;;;;;-143.84;67.51;45140.47;5091978;28;20464;-70
2022/11/05 07:41:37;;;;;;;47.50;30.63;;;;;;;-143.84;67.13;45125.22;5091520;28;20444;-70
2022/11/05 07:44:06;;;;;;;44.63;31.33;;;;;;;-143.84;65.35;45121.44;5091596;28;20439;-70
2022/11/05 07:46:33;;;;;;;59.80;28.37;;;;;;;-143.84;64.71;45106.19;5091319;28;20505;-71
2022/11/05 07:49:00;;;;;;;52.00;30.67;;;;;;;-143.84;64.28;45130.94;5091401;28;20447;-70
2022/11/05 07:51:27;;;;;;;41.30;30.17;;;;;;;-143.84;66.10;45125.22;5090601;28;20509;-70
2022/11/05 07:53:54;;;;;;;45.67;29.43;;;;;;;-143.84;62.86;45110.00;5084910;28;20962;-70
2022/11/05 07:56:21;;;;;;;56.57;31.00;;;;;;;-143.84;62.71;45134.75;5091683;28;20431;-70
2022/11/05 07:58:48;;;;;;;50.53;30.93;;;;;;;-143.84;62.63;45127.13;5091276;28;20506;-71
2022/11/05 08:01:17;;;;;;;46.17;29.80;;;;;;;-143.84;61.49;45144.28;5091073;28;20435;-71
2022/11/05 08:03:44;;;;;;;45.97;29.27;;;;;;;-143.84;61.63;45123.34;5091292;28;20944;-71
2022/11/05 08:06:14;;;;;;;49.63;29.40;;;;;;;-143.84;62.77;45110.00;5091514;28;20499;-71
2022/11/05 08:08:41;;;;;;;42.77;29.20;;;;;;;-143.84;59.49;45096.66;5091442;28;20504;-71
2022/11/05 08:11:09;;;;;;;114.30;30.80;;;;;;;-143.84;55.07;45102.38;5091155;28;20432;-71
2022/11/05 08:13:37;;;;;;;42.37;27.87;;;;;;;-143.84;55.60;45117.63;5091660;28;20432;-71
2022/11/05 08:16:06;;;;;;;52.93;30.97;;;;;;;-143.84;55.58;45092.88;5091024;28;20524;-71
2022/11/05 08:18:35;;;;;;;51.83;30.20;;;;;;;-143.84;51.70;45119.53;5091128;28;20475;-71
2022/11/05 08:21:05;;;;;;;45.50;27.23;;;;;;;-143.84;50.27;45110.00;5090796;28;20535;-70
2022/11/05 08:23:33;;;;;;;44.20;27.37;;;;;;;-143.84;51.71;45096.66;5091427;28;20489;-71
2022/11/05 08:26:03;;;;;;;41.33;28.63;;;;;;;-143.84;52.32;45073.81;5090921;28;20428;-70
2022/11/05 08:28:30;;;;;;;51.33;27.93;;;;;;;-143.84;50.41;45075.72;5090941;28;20468;-70
2022/11/05 08:30:58;;;;;;;44.00;28.03;;;;;;;-143.84;50.64;45094.78;5090754;28;20531;-71
2022/11/05 08:33:26;;;;;;;64.03;28.27;;;;;;;-143.84;51.84;45079.53;5090699;28;20482;-71
2022/11/05 08:35:54;;;;;;;46.43;27.47;;;;;;;-143.84;51.13;45110.00;5090299;28;20436;-70
2022/11/05 08:38:21;;;;;;;44.30;28.27;;;;;;;-143.84;49.74;45087.16;5089694;28;20507;-69
2022/11/05 08:40:56;;;;;;;45.33;27.07;;;;;;;-143.84;49.19;45092.88;5077364;28;20513;-70
2022/11/05 08:43:23;;;;;;;64.57;29.47;;;;;;;-143.84;48.42;45110.00;5090080;28;20446;-70
2022/11/05 08:45:53;;;;;;;48.03;27.67;;;;;;;-143.84;47.69;45094.78;5090681;28;20428;-71
2022/11/05 08:48:20;;;;;;;36.77;27.30;;;;;;;-143.84;48.25;45089.06;5090527;28;20440;-70
2022/11/05 08:50:49;;;;;;;38.70;27.30;;;;;;;-143.84;49.85;45104.28;5089976;28;20435;-72
2022/11/05 08:53:17;;;;;;;45.73;29.43;;;;;;;-143.84;47.79;45115.72;5090541;28;20518;-71
2022/11/05 08:55:46;;;;;;;45.77;29.20;;;;;;;-143.84;50.22;45104.28;5090324;28;20451;-71
2022/11/05 08:58:15;;;;;;;40.53;28.20;;;;;;;-143.84;50.70;45075.72;5090420;28;20484;-70
2022/11/05 09:00:44;;;;;;;47.40;30.23;;;;;;;-143.84;52.58;45129.03;5089722;28;20631;-72
2022/11/05 09:03:11;;;;;;;48.77;29.53;;;;;;;-143.84;51.68;45087.16;5089798;28;20849;-72
2022/11/05 09:05:40;;;;;;;43.10;28.67;;;;;;;-143.84;53.07;45073.81;5089110;28;20521;-71
2022/11/05 09:08:11;;;;;;;44.30;28.77;;;;;;;-143.84;53.89;45113.81;5089487;28;20444;-70
2022/11/05 09:10:40;;;;;;;45.57;30.37;;;;;;;-143.84;53.38;45121.44;5089628;28;21007;-70
2022/11/05 09:13:07;;;;;;;48.67;30.70;;;;;;;-143.84;54.43;45119.53;5090356;28;20443;-70
2022/11/05 09:15:35;;;;;;;52.27;30.13;;;;;;;-143.84;55.08;45079.53;5082726;28;20448;-70
2022/11/05 09:18:04;;;;;;;41.77;27.43;;;;;;;-143.84;53.43;45094.78;5065974;28;20488;-71
2022/11/05 09:20:32;;;;;;;44.53;29.60;;;;;;;-143.84;54.03;45104.28;5070068;28;20441;-70
2022/11/05 09:22:59;;;;;;;71.57;31.30;;;;;;;-143.84;54.03;45102.38;5069501;28;20557;-70
2022/11/05 09:25:27;;;;;;;76.80;29.93;;;;;;;-143.84;54.49;45111.91;5069555;28;20507;-71
2022/11/05 09:28:06;;;;;;;123.67;32.20;;;;;;;-143.84;52.89;45090.97;5069393;28;20441;-71
2022/11/05 09:30:33;;;;;;;57.43;31.50;;;;;;;-143.84;51.51;45098.56;5069594;28;20451;-70
2022/11/05 09:33:01;;;;;;;52.37;29.70;;;;;;;-143.84;52.83;45085.25;5069102;28;20541;-70
2022/11/05 09:35:28;;;;;;;47.00;30.57;;;;;;;-143.84;50.34;45079.53;5069562;28;20805;-70
2022/11/05 09:37:55;;;;;;;40.90;27.40;;;;;;;-143.84;50.44;45087.16;5069188;28;20491;-70
2022/11/05 09:40:22;;;;;;;40.17;26.77;;;;;;;-143.84;51.40;45083.34;5069419;28;20444;-70
2022/11/05 09:42:53;;;;;;;34.33;26.60;;;;;;;-143.84;48.74;45083.34;5068456;28;21042;-70
2022/11/05 09:45:25;;;;;;;45.30;27.60;;;;;;;-143.84;48.57;45085.25;5069128;28;20453;-71
2022/11/05 09:47:57;;;;;;;43.27;25.30;;;;;;;-143.84;48.47;45064.31;5069480;28;20449;-70
2022/11/05 09:50:32;;;;;;;46.43;25.60;;;;;;;-143.84;48.26;45096.66;5069080;28;20509;-71
2022/11/05 09:53:00;;;;;;;35.07;24.37;;;;;;;-143.84;49.20;45089.06;5069059;28;20444;-71
2022/11/05 09:55:30;;;;;;;34.50;24.70;;;;;;;-143.84;49.67;45071.91;5069003;28;20448;-71
2022/11/05 09:58:00;;;;;;;38.90;25.03;;;;;;;-143.84;48.57;45087.16;5069033;28;20587;-70
2022/11/05 10:00:30;;;;;;;35.20;23.30;;;;;;;-143.84;47.38;45090.97;5068877;28;20464;-71
2022/11/05 10:03:00;;;;;;;57.53;24.73;;;;;;;-143.84;46.83;45071.91;5069160;28;20449;-71
2022/11/05 10:05:28;;;;;;;32.60;23.97;;;;;;;-143.84;47.58;45092.88;5068984;28;20506;-71
2022/11/05 10:07:59;;;;;;;57.87;23.23;;;;;;;-143.84;47.34;45089.06;5068738;28;20453;-71
2022/11/05 10:10:34;;;;;;;38.47;24.17;;;;;;;-143.84;47.71;45077.63;5068886;28;20946;-71
2022/11/05 10:13:09;;;;;;;40.70;23.33;;;;;;;-143.84;46.97;45064.31;5068626;28;20463;-71
2022/11/05 10:15:44;;;;;;;28.77;21.57;;;;;;;-143.84;46.34;45087.16;5068764;28;20428;-71
2022/11/05 10:18:15;;;;;;;35.23;22.30;;;;;;;-143.84;46.68;45064.31;5068677;28;20510;-71
2022/11/05 10:20:44;;;;;;;30.33;22.33;;;;;;;-143.84;45.74;45079.53;5068684;28;21202;-71
2022/11/05 10:23:13;;;;;;;35.77;22.50;;;;;;;-143.84;46.18;45077.63;5068537;28;20449;-71
2022/11/05 10:25:45;;;;;;;35.53;22.00;;;;;;;-143.84;45.91;45087.16;5068632;28;20502;-71
2022/11/05 10:28:17;;;;;;;30.03;22.27;;;;;;;-143.84;46.35;45094.78;5068769;28;20445;-71
2022/11/05 10:30:48;;;;;;;33.97;23.20;;;;;;;-143.84;45.91;45102.38;5068796;28;20444;-70
2022/11/05 10:33:23;;;;;;;36.30;22.97;;;;;;;-143.84;46.24;45071.91;5068290;28;20641;-71
2022/11/05 10:35:54;;;;;;;42.10;24.00;;;;;;;-143.84;47.66;45092.88;5068737;28;20441;-71
2022/11/05 10:38:21;;;;;;;27.20;21.90;;;;;;;-143.84;47.74;45085.25;5068537;28;20492;-71
2022/11/05 10:40:57;;;;;;;32.67;21.63;;;;;;;-143.84;46.09;45087.16;5069958;28;21273;-71
2022/11/05 10:43:32;;;;;;;40.23;23.90;;;;;;;-143.84;45.69;45077.63;5070716;28;20441;-71
2022/11/05 10:46:13;;;;;;;42.00;24.47;;;;;;;-143.84;46.27;45077.63;5070547;28;20448;-71
2022/11/05 10:48:57;;;;;;;33.40;23.63;;;;;;;-143.84;47.52;45075.72;5070555;28;20456;-71
2022/11/05 10:51:24;;;;;;;33.93;21.63;;;;;;;-143.84;46.54;45052.88;5070138;28;20440;-71
2022/11/05 10:53:55;;;;;;;34.63;21.60;;;;;;;-143.84;46.10;45089.06;5064105;28;20877;-71
2022/11/05 10:56:30;;;;;;;33.67;22.33;;;;;;;-143.84;46.79;45056.69;5055936;28;20499;-71
2022/11/05 10:59:00;;;;;;;35.17;22.57;;;;;;;-143.84;46.21;45079.53;5070075;28;21197;-70
2022/11/05 11:01:30;;;;;;;37.07;25.10;;;;;;;-143.84;46.74;45073.81;5071301;28;20447;-70
2022/11/05 11:04:15;;;;;;;43.80;24.90;;;;;;;-143.84;48.64;45098.56;5073693;28;20448;-70
2022/11/05 11:06:48;;;;;;;39.33;24.67;;;;;;;-143.84;47.14;45085.25;5073495;28;20440;-71
2022/11/05 11:09:23;;;;;;;39.67;22.80;;;;;;;-143.84;48.04;45062.41;5071308;28;20444;-71
2022/11/05 11:11:58;;;;;;;37.60;23.57;;;;;;;-143.84;48.39;45081.44;5073894;28;20949;-71
2022/11/05 11:14:26;;;;;;;40.53;25.40;;;;;;;-143.84;47.67;45081.44;5074361;28;20515;-71
2022/11/05 11:16:56;;;;;;;36.43;23.70;;;;;;;-143.84;47.49;45092.88;5073856;28;20443;-71
2022/11/05 11:19:29;;;;;;;49.03;24.40;;;;;;;-143.84;48.18;45089.06;5073798;28;20494;-70
2022/11/05 11:22:21;;;;;;;34.70;21.87;;;;;;;-143.84;44.91;45077.63;5073714;28;20952;-71
2022/11/05 11:24:52;;;;;;;33.03;22.40;;;;;;;-143.84;43.82;45079.53;5049055;28;20449;-71
2022/11/05 11:27:24;;;;;;;32.23;21.37;;;;;;;-143.84;44.38;45090.97;5073600;28;20437;-71
2022/11/05 11:29:56;;;;;;;25.77;21.67;;;;;;;-143.84;43.60;45064.31;5073216;28;20436;-71
2022/11/05 11:32:28;;;;;;;29.80;22.17;;;;;;;-143.84;44.50;45089.06;5073312;28;20677;-71
2022/11/05 11:34:57;;;;;;;28.90;20.87;;;;;;;-143.84;45.07;45052.88;5073488;28;20477;-71
2022/11/05 11:37:28;;;;;;;30.00;21.57;;;;;;;-143.84;45.96;45064.31;5072763;28;20523;-71
2022/11/05 11:39:57;;;;;;;28.97;20.60;;;;;;;-143.84;46.17;45070.00;5073766;28;20490;-71
2022/11/05 11:42:30;;;;;;;30.90;20.10;;;;;;;-143.84;44.78;45058.59;5073648;28;20518;-71
2022/11/05 11:44:59;;;;;;;41.33;20.60;;;;;;;-143.84;44.70;45094.78;5073347;28;20874;-71
2022/11/05 11:47:29;;;;;;;45.57;20.87;;;;;;;-143.84;45.86;45096.66;5073739;28;20512;-71
2022/11/05 11:49:58;;;;;;;47.93;22.40;;;;;;;-143.84;49.83;45085.25;5073146;28;20449;-71
2022/11/05 11:52:28;;;;;;;35.97;21.37;;;;;;;-143.84;49.83;45090.97;5072826;28;20440;-71
2022/11/05 11:55:18;;;;;;;34.67;22.40;;;;;;;-143.84;49.90;45081.44;5073098;28;20441;-71
2022/11/05 11:57:47;;;;;;;38.23;21.13;;;;;;;-143.84;50.11;45079.53;5073253;28;20433;-71